sensor_id;sensor_type;location;lat;lon;timestamp;pressure;altitude;pressure_sealevel;temperature;humidity
57799;BME280;43626;53.866;30.298;2023-05-20T00:02:16;1035.4;;;14.1;40.9
57799;BME280;43626;53.866;30.298;2023-05-20T00:06:26;1035.4;;;13.8;41.2
57799;BME280;43626;53.866;30.298;2023-05-20T00:12:02;1035.4;;;13.7;41.5
57799;BME280;43626;53.866;30.298;2023-05-20T00:17:00;1035.4;;;13.7;41.7
57799;BME280;43626;53.866;30.298;2023-05-20T00:21:44;1035.4;;;13.6;41.9
57799;BME280;43626;53.866;30.298;2023-05-20T00:27:16;1035.4;;;13.4;42.5
57799;BME280;43626;53.866;30.298;2023-05-20T00:32:00;1035.4;;;13.2;43.5
57799;BME280;43626;53.866;30.298;2023-05-20T00:37:16;1035.4;;;13.1;44
57799;BME280;43626;53.866;30.298;2023-05-20T00:42:02;1035.4;;;13;44.5
57799;BME280;43626;53.866;30.298;2023-05-20T00:46:52;1035.5;;;13;44.7
57799;BME280;43626;53.866;30.298;2023-05-20T00:52:06;1035.5;;;13;44.8
57799;BME280;43626;53.866;30.298;2023-05-20T00:56:40;1035.6;;;13;44.8
57799;BME280;43626;53.866;30.298;2023-05-20T01:01:46;1035.6;;;12.8;45
57799;BME280;43626;53.866;30.298;2023-05-20T01:07:16;1035.6;;;12.7;45.1
57799;BME280;43626;53.866;30.298;2023-05-20T01:11:53;1035.7;;;12.7;45.2
57799;BME280;43626;53.866;30.298;2023-05-20T01:17:17;1035.7;;;12.6;45.4
57799;BME280;43626;53.866;30.298;2023-05-20T01:22:16;1035.7;;;12.5;45.6
57799;BME280;43626;53.866;30.298;2023-05-20T01:26:54;1035.7;;;12.4;45.9
57799;BME280;43626;53.866;30.298;2023-05-20T01:32:04;1035.7;;;12.3;46.7
57799;BME280;43626;53.866;30.298;2023-05-20T01:37:00;1035.7;;;12.3;47.1
57799;BME280;43626;53.866;30.298;2023-05-20T01:42:18;1035.8;;;12.3;47.1
57799;BME280;43626;53.866;30.298;2023-05-20T01:47:02;1035.8;;;12.4;47.1
57799;BME280;43626;53.866;30.298;2023-05-20T01:51:48;1035.9;;;12.4;47.2
57799;BME280;43626;53.866;30.298;2023-05-20T01:56:26;1036;;;12.3;47.3
57799;BME280;43626;53.866;30.298;2023-05-20T02:01:40;1036;;;12.3;47.2
57799;BME280;43626;53.866;30.298;2023-05-20T02:06:48;1036;;;12.3;47.1
57799;BME280;43626;53.866;30.298;2023-05-20T02:11:52;1036;;;12.3;47.1
57799;BME280;43626;53.866;30.298;2023-05-20T02:16:28;1036.1;;;12.2;47.2
57799;BME280;43626;53.866;30.298;2023-05-20T02:22:18;1036.1;;;12.1;47.3
57799;BME280;43626;53.866;30.298;2023-05-20T02:27:06;1036.1;;;12;47.8
57799;BME280;43626;53.866;30.298;2023-05-20T02:31:52;1036.1;;;12;48.3
57799;BME280;43626;53.866;30.298;2023-05-20T02:36:54;1036.1;;;12;48.4
57799;BME280;43626;53.866;30.298;2023-05-20T02:42:16;1036.2;;;12.1;48.3
57799;BME280;43626;53.866;30.298;2023-05-20T02:47:12;1036.2;;;12.1;48.3
57799;BME280;43626;53.866;30.298;2023-05-20T02:51:40;1036.3;;;12.1;48.3
57799;BME280;43626;53.866;30.298;2023-05-20T02:57:16;1036.3;;;12.1;48.3
57799;BME280;43626;53.866;30.298;2023-05-20T03:02:08;1036.3;;;12.2;48.1
57799;BME280;43626;53.866;30.298;2023-05-20T03:06:42;1036.4;;;12.3;47.7
57799;BME280;43626;53.866;30.298;2023-05-20T03:11:46;1036.4;;;12.4;47.6
57799;BME280;43626;53.866;30.298;2023-05-20T03:16:52;1036.5;;;12.4;47.6
57799;BME280;43626;53.866;30.298;2023-05-20T03:21:50;1036.5;;;12.4;47.6
57799;BME280;43626;53.866;30.298;2023-05-20T03:26:46;1036.5;;;12.4;47.7
57799;BME280;43626;53.866;30.298;2023-05-20T03:32:08;1036.5;;;12.4;48
57799;BME280;43626;53.866;30.298;2023-05-20T03:37:14;1036.5;;;12.6;47.7
57799;BME280;43626;53.866;30.298;2023-05-20T03:41:52;1036.5;;;12.7;47.3
57799;BME280;43626;53.866;30.298;2023-05-20T03:47:02;1036.5;;;12.9;47.2
57799;BME280;43626;53.866;30.298;2023-05-20T03:51:52;1036.6;;;13;47
57799;BME280;43626;53.866;30.298;2023-05-20T03:56:28;1036.6;;;13.1;46.7
57799;BME280;43626;53.866;30.298;2023-05-20T04:02:16;1036.7;;;13.3;46.7
57799;BME280;43626;53.866;30.298;2023-05-20T04:07:16;1036.7;;;13.4;46.2
57799;BME280;43626;53.866;30.298;2023-05-20T04:12:08;1036.7;;;13.5;46
57799;BME280;43626;53.866;30.298;2023-05-20T04:16:28;1036.8;;;13.6;45.9
57799;BME280;43626;53.866;30.298;2023-05-20T04:21:52;1036.8;;;13.7;45.7
57799;BME280;43626;53.866;30.298;2023-05-20T04:26:28;1036.8;;;13.7;45.6
57799;BME280;43626;53.866;30.298;2023-05-20T04:31:28;1036.8;;;13.8;45.6
57799;BME280;43626;53.866;30.298;2023-05-20T04:36:46;1036.8;;;13.9;45.5
57799;BME280;43626;53.866;30.298;2023-05-20T04:42:16;1036.8;;;13.9;45.5
57799;BME280;43626;53.866;30.298;2023-05-20T04:46:40;1036.9;;;13.9;45.3
57799;BME280;43626;53.866;30.298;2023-05-20T04:52:10;1036.9;;;13.9;45.4
57799;BME280;43626;53.866;30.298;2023-05-20T04:57:06;1036.9;;;13.9;46
57799;BME280;43626;53.866;30.298;2023-05-20T05:01:54;1036.9;;;14.2;45.8
57799;BME280;43626;53.866;30.298;2023-05-20T05:07:08;1036.9;;;14.3;45.2
57799;BME280;43626;53.866;30.298;2023-05-20T05:12:16;1036.9;;;14.5;44.8
57799;BME280;43626;53.866;30.298;2023-05-20T05:17:16;1036.9;;;14.5;44.6
57799;BME280;43626;53.866;30.298;2023-05-20T05:22:00;1036.9;;;14.5;44.6
57799;BME280;43626;53.866;30.298;2023-05-20T05:27:14;1036.9;;;14.6;44.4
57799;BME280;43626;53.866;30.298;2023-05-20T05:31:56;1036.9;;;14.5;44.3
57799;BME280;43626;53.866;30.298;2023-05-20T05:36:40;1036.9;;;14.7;44.6
57799;BME280;43626;53.866;30.298;2023-05-20T05:41:40;1036.9;;;14.9;43.7
57799;BME280;43626;53.866;30.298;2023-05-20T05:46:52;1036.9;;;15;43.2
57799;BME280;43626;53.866;30.298;2023-05-20T05:51:44;1036.9;;;15;42.6
57799;BME280;43626;53.866;30.298;2023-05-20T05:56:54;1036.9;;;15.1;42.8
57799;BME280;43626;53.866;30.298;2023-05-20T06:02:08;1036.9;;;15.2;42.5
57799;BME280;43626;53.866;30.298;2023-05-20T06:07:16;1036.9;;;15.3;42.3
57799;BME280;43626;53.866;30.298;2023-05-20T06:11:28;1036.8;;;15.4;42.1
57799;BME280;43626;53.866;30.298;2023-05-20T06:17:02;1036.8;;;15.6;41.9
57799;BME280;43626;53.866;30.298;2023-05-20T06:21:50;1036.8;;;15.7;41.8
57799;BME280;43626;53.866;30.298;2023-05-20T06:26:26;1036.8;;;15.9;41.4
57799;BME280;43626;53.866;30.298;2023-05-20T06:32:16;1036.8;;;16;41
57799;BME280;43626;53.866;30.298;2023-05-20T06:36:48;1036.8;;;16.2;39.7
57799;BME280;43626;53.866;30.298;2023-05-20T06:42:02;1036.8;;;16.2;38.7
57799;BME280;43626;53.866;30.298;2023-05-20T06:46:38;1036.8;;;16.2;38.4
57799;BME280;43626;53.866;30.298;2023-05-20T06:51:52;1036.8;;;16.3;37.6
57799;BME280;43626;53.866;30.298;2023-05-20T06:56:28;1036.8;;;16.4;37.1
57799;BME280;43626;53.866;30.298;2023-05-20T07:01:44;1036.8;;;16.4;36.9
57799;BME280;43626;53.866;30.298;2023-05-20T07:06:32;1036.8;;;16.4;37.1
57799;BME280;43626;53.866;30.298;2023-05-20T07:12:02;1036.8;;;16.6;37.5
57799;BME280;43626;53.866;30.298;2023-05-20T07:16:38;1036.7;;;16.7;37.1
57799;BME280;43626;53.866;30.298;2023-05-20T07:22:16;1036.7;;;16.9;36.8
57799;BME280;43626;53.866;30.298;2023-05-20T07:26:30;1036.7;;;17;36.6
57799;BME280;43626;53.866;30.298;2023-05-20T07:31:28;1036.7;;;17;36.4
57799;BME280;43626;53.866;30.298;2023-05-20T07:36:54;1036.7;;;17.1;36
57799;BME280;43626;53.866;30.298;2023-05-20T07:42:16;1036.6;;;17.3;35.6
57799;BME280;43626;53.866;30.298;2023-05-20T07:47:16;1036.6;;;17.4;35.1
57799;BME280;43626;53.866;30.298;2023-05-20T07:51:40;1036.7;;;17.5;34.4
57799;BME280;43626;53.866;30.298;2023-05-20T07:57:16;1036.7;;;17.4;34.2
57799;BME280;43626;53.866;30.298;2023-05-20T08:02:16;1036.7;;;17.5;34.2
57799;BME280;43626;53.866;30.298;2023-05-20T08:06:28;1036.6;;;17.6;34.3
57799;BME280;43626;53.866;30.298;2023-05-20T08:11:46;1036.5;;;17.6;33.8
57799;BME280;43626;53.866;30.298;2023-05-20T08:16:28;1036.6;;;17.5;33.9
57799;BME280;43626;53.866;30.298;2023-05-20T08:22:02;1036.6;;;17.7;34.2
57799;BME280;43626;53.866;30.298;2023-05-20T08:26:46;1036.6;;;17.8;33.9
57799;BME280;43626;53.866;30.298;2023-05-20T08:32:08;1036.5;;;17.8;33.4
57799;BME280;43626;53.866;30.298;2023-05-20T08:37:16;1036.5;;;17.8;32.9
57799;BME280;43626;53.866;30.298;2023-05-20T08:41:42;1036.5;;;17.9;33
57799;BME280;43626;53.866;30.298;2023-05-20T08:46:56;1036.4;;;18;32.9
57799;BME280;43626;53.866;30.298;2023-05-20T08:51:38;1036.3;;;18;33
57799;BME280;43626;53.866;30.298;2023-05-20T08:56:28;1036.3;;;18;33.9
57799;BME280;43626;53.866;30.298;2023-05-20T09:02:14;1036.3;;;18.2;33.1
57799;BME280;43626;53.866;30.298;2023-05-20T09:06:58;1036.3;;;18.4;32.6
57799;BME280;43626;53.866;30.298;2023-05-20T09:12:08;1036.2;;;18.5;32.9
57799;BME280;43626;53.866;30.298;2023-05-20T09:16:40;1036.2;;;18.6;32.3
57799;BME280;43626;53.866;30.298;2023-05-20T09:21:28;1036.2;;;18.6;31.6
57799;BME280;43626;53.866;30.298;2023-05-20T09:26:40;1036.2;;;18.6;31.4
57799;BME280;43626;53.866;30.298;2023-05-20T09:31:38;1036.2;;;18.7;30.9
57799;BME280;43626;53.866;30.298;2023-05-20T09:36:44;1036.2;;;18.8;31.1
57799;BME280;43626;53.866;30.298;2023-05-20T09:42:16;1036.1;;;18.9;31.5
57799;BME280;43626;53.866;30.298;2023-05-20T09:46:26;1036.1;;;18.9;31.4
57799;BME280;43626;53.866;30.298;2023-05-20T09:52:14;1036.2;;;19.1;31.5
57799;BME280;43626;53.866;30.298;2023-05-20T09:57:06;1036.2;;;19.1;31
57799;BME280;43626;53.866;30.298;2023-05-20T10:02:02;1036.2;;;19.1;30.3
57799;BME280;43626;53.866;30.298;2023-05-20T10:06:34;1036.1;;;19.2;30.7
57799;BME280;43626;53.866;30.298;2023-05-20T10:12:19;1036.1;;;19.3;31
57799;BME280;43626;53.866;30.298;2023-05-20T10:17:18;1036.1;;;19.3;30.8
57799;BME280;43626;53.866;30.298;2023-05-20T10:21:59;1036.1;;;19.3;30.3
57799;BME280;43626;53.866;30.298;2023-05-20T10:27:16;1036.1;;;19.4;30.1
57799;BME280;43626;53.866;30.298;2023-05-20T10:32:08;1036;;;19.3;29.8
57799;BME280;43626;53.866;30.298;2023-05-20T10:36:43;1036;;;19.4;29.8
57799;BME280;43626;53.866;30.298;2023-05-20T10:41:46;1035.9;;;19.5;29.2
57799;BME280;43626;53.866;30.298;2023-05-20T10:46:28;1035.8;;;19.6;29.4
57799;BME280;43626;53.866;30.298;2023-05-20T10:51:43;1035.7;;;19.7;30
57799;BME280;43626;53.866;30.298;2023-05-20T10:56:28;1035.7;;;19.8;29.9
57799;BME280;43626;53.866;30.298;2023-05-20T11:01:56;1035.6;;;20.1;29.7
57799;BME280;43626;53.866;30.298;2023-05-20T11:07:23;1035.6;;;20.1;28.7
57799;BME280;43626;53.866;30.298;2023-05-20T11:11:54;1035.6;;;20.1;28.5
57799;BME280;43626;53.866;30.298;2023-05-20T11:17:02;1035.6;;;20.2;28.7
57799;BME280;43626;53.866;30.298;2023-05-20T11:22:00;1035.6;;;20.2;28.6
57799;BME280;43626;53.866;30.298;2023-05-20T11:26:40;1035.6;;;20.3;28.6
57799;BME280;43626;53.866;30.298;2023-05-20T11:32:18;1035.5;;;20.3;28.2
57799;BME280;43626;53.866;30.298;2023-05-20T11:37:16;1035.5;;;20.4;28.3
57799;BME280;43626;53.866;30.298;2023-05-20T11:42:16;1035.5;;;20.5;27.8
57799;BME280;43626;53.866;30.298;2023-05-20T11:47:02;1035.5;;;20.4;27.4
57799;BME280;43626;53.866;30.298;2023-05-20T11:51:41;1035.5;;;20.5;27.1
57799;BME280;43626;53.866;30.298;2023-05-20T11:57:09;1035.3;;;20.6;27.5
57799;BME280;43626;53.866;30.298;2023-05-20T12:01:54;1035.3;;;20.9;27.7
57799;BME280;43626;53.866;30.298;2023-05-20T12:06:28;1035.3;;;21;27.1
57799;BME280;43626;53.866;30.298;2023-05-20T12:12:16;1035.3;;;21.1;27.1
57799;BME280;43626;53.866;30.298;2023-05-20T12:17:08;1035.3;;;21.3;26.9
57799;BME280;43626;53.866;30.298;2023-05-20T12:22:16;1035.3;;;21.3;27.2
57799;BME280;43626;53.866;30.298;2023-05-20T12:27:16;1035.2;;;21.4;26.9
57799;BME280;43626;53.866;30.298;2023-05-20T12:31:28;1035.2;;;21.2;25.7
57799;BME280;43626;53.866;30.298;2023-05-20T12:36:49;1035.2;;;21.2;26
57799;BME280;43626;53.866;30.298;2023-05-20T12:41:42;1035.2;;;21.4;25.5
57799;BME280;43626;53.866;30.298;2023-05-20T12:47:16;1035.1;;;21.4;24.7
57799;BME280;43626;53.866;30.298;2023-05-20T12:51:52;1035;;;21.5;24.9
57799;BME280;43626;53.866;30.298;2023-05-20T12:57:02;1034.9;;;21.6;25
57799;BME280;43626;53.866;30.298;2023-05-20T13:01:54;1034.9;;;21.7;25.3
57799;BME280;43626;53.866;30.298;2023-05-20T13:06:28;1034.8;;;21.6;25.3
57799;BME280;43626;53.866;30.298;2023-05-20T13:11:46;1034.7;;;21.5;25.6
57799;BME280;43626;53.866;30.298;2023-05-20T13:16:28;1034.7;;;21.7;25.6
57799;BME280;43626;53.866;30.298;2023-05-20T13:22:02;1034.7;;;21.7;25.3
57799;BME280;43626;53.866;30.298;2023-05-20T13:26:56;1034.7;;;21.8;25
57799;BME280;43626;53.866;30.298;2023-05-20T13:32:08;1034.6;;;21.9;24.7
57799;BME280;43626;53.866;30.298;2023-05-20T13:37:16;1034.6;;;22.1;23.9
57799;BME280;43626;53.866;30.298;2023-05-20T13:41:54;1034.6;;;22.1;23.9
57799;BME280;43626;53.866;30.298;2023-05-20T13:47:02;1034.6;;;22.1;24.1
57799;BME280;43626;53.866;30.298;2023-05-20T13:52:00;1034.5;;;22.1;24.4
57799;BME280;43626;53.866;30.298;2023-05-20T13:56:40;1034.5;;;22.1;23.7
57799;BME280;43626;53.866;30.298;2023-05-20T14:02:18;1034.6;;;22;24.2
57799;BME280;43626;53.866;30.298;2023-05-20T14:07:02;1034.6;;;22.1;24.3
57799;BME280;43626;53.866;30.298;2023-05-20T14:12:18;1034.6;;;22.3;24.2
57799;BME280;43626;53.866;30.298;2023-05-20T14:16:30;1034.6;;;22.2;24.5
57799;BME280;43626;53.866;30.298;2023-05-20T14:21:52;1034.6;;;21.9;24.5
57799;BME280;43626;53.866;30.298;2023-05-20T14:26:54;1034.6;;;21.9;24.7
57799;BME280;43626;53.866;30.298;2023-05-20T14:32:00;1034.6;;;21.9;24.6
57799;BME280;43626;53.866;30.298;2023-05-20T14:36:46;1034.6;;;21.9;24.7
57799;BME280;43626;53.866;30.298;2023-05-20T14:42:16;1034.5;;;22.3;24.2
57799;BME280;43626;53.866;30.298;2023-05-20T14:46:28;1034.5;;;22.6;24.3
57799;BME280;43626;53.866;30.298;2023-05-20T14:52:16;1034.4;;;22.6;23.5
57799;BME280;43626;53.866;30.298;2023-05-20T14:57:16;1034.4;;;22.6;23.4
57799;BME280;43626;53.866;30.298;2023-05-20T15:01:54;1034.4;;;22.7;23.7
57799;BME280;43626;53.866;30.298;2023-05-20T15:06:46;1034.3;;;22.9;23.8
57799;BME280;43626;53.866;30.298;2023-05-20T15:12:00;1034.3;;;23.1;23.8
57799;BME280;43626;53.866;30.298;2023-05-20T15:17:16;1034.3;;;23.1;23.8
57799;BME280;43626;53.866;30.298;2023-05-20T15:21:52;1034.2;;;23;24
57799;BME280;43626;53.866;30.298;2023-05-20T15:27:00;1034.2;;;23.1;24
57799;BME280;43626;53.866;30.298;2023-05-20T15:32:02;1034.1;;;23.1;23.9
57799;BME280;43626;53.866;30.298;2023-05-20T15:36:40;1034;;;23.4;23.6
57799;BME280;43626;53.866;30.298;2023-05-20T15:41:29;1034;;;23.8;22.6
57799;BME280;43626;53.866;30.298;2023-05-20T15:47:16;1034;;;23.8;22.8
57799;BME280;43626;53.866;30.298;2023-05-20T15:52:08;1033.9;;;24.1;22.2
57799;BME280;43626;53.866;30.298;2023-05-20T15:57:16;1033.9;;;24.1;21.9
57799;BME280;43626;53.866;30.298;2023-05-20T16:02:06;1033.9;;;23.5;22.2
57799;BME280;43626;53.866;30.298;2023-05-20T16:06:42;1033.8;;;23.6;22.4
57799;BME280;43626;53.866;30.298;2023-05-20T16:11:40;1033.8;;;23.9;22.4
57799;BME280;43626;53.866;30.298;2023-05-20T16:17:14;1033.8;;;24.1;22.2
57799;BME280;43626;53.866;30.298;2023-05-20T16:22:17;1033.8;;;23.9;22.3
57799;BME280;43626;53.866;30.298;2023-05-20T16:26:40;1033.8;;;24.2;22.3
57799;BME280;43626;53.866;30.298;2023-05-20T16:32:10;1033.8;;;24;22.4
57799;BME280;43626;53.866;30.298;2023-05-20T16:37:08;1033.8;;;24;22.2
57799;BME280;43626;53.866;30.298;2023-05-20T16:41:28;1033.9;;;24.1;22.1
57799;BME280;43626;53.866;30.298;2023-05-20T16:46:46;1033.9;;;24;22.1
57799;BME280;43626;53.866;30.298;2023-05-20T16:51:52;1033.8;;;24.3;21.9
57799;BME280;43626;53.866;30.298;2023-05-20T16:57:03;1033.9;;;24.4;22.2
57799;BME280;43626;53.866;30.298;2023-05-20T17:01:28;1033.9;;;24.5;22.2
57799;BME280;43626;53.866;30.298;2023-05-20T17:07:06;1033.9;;;24.5;22.3
57799;BME280;43626;53.866;30.298;2023-05-20T17:12:14;1033.9;;;24.6;22.3
57799;BME280;43626;53.866;30.298;2023-05-20T17:16:40;1033.9;;;24.6;22.2
57799;BME280;43626;53.866;30.298;2023-05-20T17:22:00;1033.9;;;24.5;22.3
57799;BME280;43626;53.866;30.298;2023-05-20T17:26:52;1033.9;;;24.4;22.3
57799;BME280;43626;53.866;30.298;2023-05-20T17:31:38;1033.9;;;24.1;22.4
57799;BME280;43626;53.866;30.298;2023-05-20T17:37:16;1034;;;23.8;22.7
57799;BME280;43626;53.866;30.298;2023-05-20T17:42:00;1034;;;23.7;22.8
57799;BME280;43626;53.866;30.298;2023-05-20T17:46:54;1034;;;22.6;24.1
57799;BME280;43626;53.866;30.298;2023-05-20T17:51:28;1034.1;;;21.7;25.3
57799;BME280;43626;53.866;30.298;2023-05-20T17:56:52;1034.1;;;21;26.4
57799;BME280;43626;53.866;30.298;2023-05-20T18:01:40;1034.1;;;20.6;26.7
57799;BME280;43626;53.866;30.298;2023-05-20T18:06:58;1034.1;;;20.1;27.2
57799;BME280;43626;53.866;30.298;2023-05-20T18:11:32;1034;;;19.8;27.7
57799;BME280;43626;53.866;30.298;2023-05-20T18:17:16;1034;;;19.6;28.1
57799;BME280;43626;53.866;30.298;2023-05-20T18:21:40;1034;;;19.4;28.5
57799;BME280;43626;53.866;30.298;2023-05-20T18:27:16;1034;;;19.2;28.8
57799;BME280;43626;53.866;30.298;2023-05-20T18:32:05;1034;;;19.1;29.4
57799;BME280;43626;53.866;30.298;2023-05-20T18:36:54;1033.9;;;18.9;30.4
57799;BME280;43626;53.866;30.298;2023-05-20T18:41:54;1034;;;18.8;31.3
57799;BME280;43626;53.866;30.298;2023-05-20T18:47:10;1034;;;18.6;32
57799;BME280;43626;53.866;30.298;2023-05-20T18:52:16;1034;;;18.4;32.7
57799;BME280;43626;53.866;30.298;2023-05-20T18:56:40;1034.1;;;18.2;33.6
57799;BME280;43626;53.866;30.298;2023-05-20T19:02:16;1034.1;;;18;35
57799;BME280;43626;53.866;30.298;2023-05-20T19:07:09;1034.1;;;17.8;35.2
57799;BME280;43626;53.866;30.298;2023-05-20T19:11:29;1034.2;;;17.6;35.4
57799;BME280;43626;53.866;30.298;2023-05-20T19:16:46;1034.2;;;17.4;35.4
57799;BME280;43626;53.866;30.298;2023-05-20T19:21:38;1034.2;;;17.3;35.4
57799;BME280;43626;53.866;30.298;2023-05-20T19:27:00;1034.3;;;17.2;35.9
57799;BME280;43626;53.866;30.298;2023-05-20T19:31:58;1034.3;;;17.1;36.1
57799;BME280;43626;53.866;30.298;2023-05-20T19:37:09;1034.3;;;17;37.3
57799;BME280;43626;53.866;30.298;2023-05-20T19:42:16;1034.4;;;16.8;37.9
57799;BME280;43626;53.866;30.298;2023-05-20T19:46:28;1034.4;;;16.6;38.3
57799;BME280;43626;53.866;30.298;2023-05-20T19:52:17;1034.5;;;16.4;38.7
57799;BME280;43626;53.866;30.298;2023-05-20T19:56:28;1034.4;;;16.2;39.8
57799;BME280;43626;53.866;30.298;2023-05-20T20:01:28;1034.4;;;16.1;41
57799;BME280;43626;53.866;30.298;2023-05-20T20:07:16;1034.4;;;15.9;41.5
57799;BME280;43626;53.866;30.298;2023-05-20T20:12:01;1034.4;;;15.8;42
57799;BME280;43626;53.866;30.298;2023-05-20T20:17:04;1034.4;;;15.7;42.6
57799;BME280;43626;53.866;30.298;2023-05-20T20:22:03;1034.4;;;15.5;42.9
57799;BME280;43626;53.866;30.298;2023-05-20T20:27:08;1034.4;;;15.4;43.1
57799;BME280;43626;53.866;30.298;2023-05-20T20:31:38;1034.4;;;15.3;43.6
57799;BME280;43626;53.866;30.298;2023-05-20T20:36:40;1034.4;;;15.2;45
57799;BME280;43626;53.866;30.298;2023-05-20T20:41:38;1034.4;;;15.1;45.6
57799;BME280;43626;53.866;30.298;2023-05-20T20:47:17;1034.4;;;14.9;46
57799;BME280;43626;53.866;30.298;2023-05-20T20:51:28;1034.3;;;14.7;45.7
57799;BME280;43626;53.866;30.298;2023-05-20T20:57:16;1034.3;;;14.6;46.1
57799;BME280;43626;53.866;30.298;2023-05-20T21:02:14;1034.3;;;14.5;45.9
57799;BME280;43626;53.866;30.298;2023-05-20T21:06:40;1034.3;;;14.4;45.9
57799;BME280;43626;53.866;30.298;2023-05-20T21:12:13;1034.4;;;14.4;46.1
57799;BME280;43626;53.866;30.298;2023-05-20T21:16:58;1034.4;;;14.3;46.2
57799;BME280;43626;53.866;30.298;2023-05-20T21:22:14;1034.4;;;14.3;46.3
57799;BME280;43626;53.866;30.298;2023-05-20T21:26:46;1034.4;;;14.2;46.5
57799;BME280;43626;53.866;30.298;2023-05-20T21:32:16;1034.4;;;14.1;47.4
57799;BME280;43626;53.866;30.298;2023-05-20T21:36:54;1034.4;;;14;48
57799;BME280;43626;53.866;30.298;2023-05-20T21:41:27;1034.4;;;13.8;49
57799;BME280;43626;53.866;30.298;2023-05-20T21:46:45;1034.4;;;13.8;49.8
57799;BME280;43626;53.866;30.298;2023-05-20T21:51:52;1034.4;;;13.7;49.5
57799;BME280;43626;53.866;30.298;2023-05-20T21:56:49;1034.4;;;13.6;49.8
57799;BME280;43626;53.866;30.298;2023-05-20T22:02:01;1034.4;;;13.5;49.7
57799;BME280;43626;53.866;30.298;2023-05-20T22:06:55;1034.3;;;13.5;49.5
57799;BME280;43626;53.866;30.298;2023-05-20T22:12:17;1034.3;;;13.4;49.5
57799;BME280;43626;53.866;30.298;2023-05-20T22:16:29;1034.3;;;13.4;49.8
57799;BME280;43626;53.866;30.298;2023-05-20T22:21:30;1034.3;;;13.3;49.8
57799;BME280;43626;53.866;30.298;2023-05-20T22:27:03;1034.3;;;13.2;49.8
57799;BME280;43626;53.866;30.298;2023-05-20T22:31:29;1034.2;;;13.2;50.2
57799;BME280;43626;53.866;30.298;2023-05-20T22:37:15;1034.2;;;13;51
57799;BME280;43626;53.866;30.298;2023-05-20T22:42:01;1034.2;;;13;51.3
57799;BME280;43626;53.866;30.298;2023-05-20T22:47:17;1034.2;;;12.9;51.4
57799;BME280;43626;53.866;30.298;2023-05-20T22:52:03;1034.2;;;12.8;51.6
57799;BME280;43626;53.866;30.298;2023-05-20T22:56:29;1034.2;;;12.7;51.6
57799;BME280;43626;53.866;30.298;2023-05-20T23:01:43;1034.2;;;12.7;51.6
57799;BME280;43626;53.866;30.298;2023-05-20T23:06:29;1034.2;;;12.6;51.5
57799;BME280;43626;53.866;30.298;2023-05-20T23:11:41;1034.2;;;12.5;51.3
57799;BME280;43626;53.866;30.298;2023-05-20T23:17:17;1034.2;;;12.4;51.4
57799;BME280;43626;53.866;30.298;2023-05-20T23:21:29;1034.1;;;12.4;51.5
57799;BME280;43626;53.866;30.298;2023-05-20T23:27:17;1034.1;;;12.4;51.5
57799;BME280;43626;53.866;30.298;2023-05-20T23:32:17;1034.1;;;12.3;51.6
57799;BME280;43626;53.866;30.298;2023-05-20T23:36:55;1034.1;;;12.2;52.4
57799;BME280;43626;53.866;30.298;2023-05-20T23:41:41;1034.1;;;12.1;52.6
57799;BME280;43626;53.866;30.298;2023-05-20T23:47:01;1034.2;;;12.1;53
57799;BME280;43626;53.866;30.298;2023-05-20T23:52:17;1034.1;;;12.1;53.1
57799;BME280;43626;53.866;30.298;2023-05-20T23:56:29;1034.1;;;12;53
